createdAt,value
2022-11-12T00:00:52.049Z,99927.44
2022-11-12T00:03:18.820Z,99927.19
2022-11-12T00:05:46.065Z,99927.19
2022-11-12T00:08:13.406Z,99922.31
2022-11-12T00:10:40.041Z,99928.63
2022-11-12T00:13:07.118Z,99924.63
2022-11-12T00:15:33.815Z,99919.81
2022-11-12T00:18:00.501Z,99918.09
2022-11-12T00:20:27.091Z,99915.78
2022-11-12T00:22:53.741Z,99921.03
2022-11-12T00:25:20.315Z,99925.94
2022-11-12T00:27:46.923Z,99924.84
2022-11-12T00:30:13.656Z,99920.63
2022-11-12T00:32:40.256Z,99915.00
2022-11-12T00:35:12.506Z,99908.38
2022-11-12T00:37:40.560Z,99923.44
2022-11-12T00:40:08.060Z,99917.53
2022-11-12T00:42:34.720Z,99911.59
2022-11-12T00:45:01.364Z,99913.38
2022-11-12T00:47:28.005Z,99907.13
2022-11-12T00:49:54.744Z,99912.38
2022-11-12T00:52:21.317Z,99907.34
2022-11-12T00:54:48.423Z,99909.38
2022-11-12T00:57:15.000Z,99903.94
2022-11-12T00:59:41.631Z,99904.06
2022-11-12T01:02:08.314Z,99902.53
2022-11-12T01:04:34.952Z,99914.50
2022-11-12T01:07:01.613Z,99921.22
2022-11-12T01:09:28.315Z,99917.91
2022-11-12T01:11:55.229Z,99925.66
2022-11-12T01:14:21.853Z,99912.38
2022-11-12T01:16:48.508Z,99911.56
2022-11-12T01:19:15.179Z,99902.84
2022-11-12T01:21:44.151Z,99904.16
2022-11-12T01:24:11.411Z,99903.81
2022-11-12T01:26:38.572Z,99896.31
2022-11-12T01:29:05.454Z,99901.34
2022-11-12T01:31:35.678Z,99901.72
2022-11-12T01:34:07.562Z,99897.09
2022-11-12T01:36:39.543Z,99890.56
2022-11-12T01:39:08.306Z,99893.47
2022-11-12T01:41:38.305Z,99881.22
2022-11-12T01:44:10.992Z,99886.75
2022-11-12T01:46:58.729Z,99895.41
2022-11-12T01:49:31.763Z,99894.06
2022-11-12T01:52:16.317Z,99890.84
2022-11-12T01:54:47.051Z,99883.53
2022-11-12T01:57:14.214Z,99889.25
2022-11-12T02:02:16.953Z,99892.38
2022-11-12T02:04:43.871Z,99880.91
2022-11-12T02:07:11.505Z,99878.63
2022-11-12T02:09:38.181Z,99865.16
2022-11-12T02:12:05.880Z,99874.00
2022-11-12T02:14:32.908Z,99868.28
2022-11-12T02:17:00.175Z,99873.38
2022-11-12T02:19:27.055Z,99874.00
2022-11-12T02:21:53.701Z,99866.75
2022-11-12T02:24:20.222Z,99872.19
2022-11-12T02:26:51.421Z,99866.75
2022-11-12T02:29:18.061Z,99869.16
2022-11-12T02:31:44.702Z,99862.22
2022-11-12T02:34:11.329Z,99862.81
2022-11-12T02:36:37.902Z,99858.41
2022-11-12T02:39:05.028Z,99850.97
2022-11-12T02:41:31.701Z,99858.41
2022-11-12T02:43:58.284Z,99859.31
2022-11-12T02:46:24.848Z,99859.03
2022-11-12T02:48:51.450Z,99857.53
2022-11-12T02:51:18.093Z,99859.13
2022-11-12T02:53:44.683Z,99864.97
2022-11-12T02:56:11.276Z,99860.31
2022-11-12T02:58:37.878Z,99860.84
2022-11-12T03:01:04.735Z,99869.97
2022-11-12T03:03:31.421Z,99875.41
2022-11-12T03:06:01.074Z,99871.56
2022-11-12T03:08:28.596Z,99871.94
2022-11-12T03:10:55.454Z,99874.38
2022-11-12T03:13:22.257Z,99870.16
2022-11-12T03:15:48.875Z,99866.03
2022-11-12T03:18:16.544Z,99867.84
2022-11-12T03:20:43.173Z,99856.53
2022-11-12T03:23:11.337Z,99858.47
2022-11-12T03:25:38.291Z,99863.06
2022-11-12T03:28:13.219Z,99846.53
2022-11-12T03:30:41.995Z,99854.78
2022-11-12T03:33:11.423Z,99847.16
2022-11-12T03:35:39.192Z,99844.44
2022-11-12T03:38:06.782Z,99849.88
2022-11-12T03:40:34.749Z,99846.78
2022-11-12T03:43:01.374Z,99844.84
2022-11-12T03:45:28.602Z,99849.06
2022-11-12T03:47:57.038Z,99853.28
2022-11-12T03:50:27.019Z,99860.13
2022-11-12T03:52:56.821Z,99872.38
2022-11-12T03:55:25.616Z,99872.88
2022-11-12T03:57:53.257Z,99870.78
2022-11-12T04:02:52.769Z,99867.91
2022-11-12T04:05:38.206Z,99866.00
2022-11-12T04:08:26.427Z,99860.19
2022-11-12T04:10:53.259Z,99870.56
2022-11-12T04:13:28.871Z,99871.41
2022-11-12T04:16:20.014Z,99866.16
2022-11-12T04:19:07.651Z,99869.34
2022-11-12T04:21:51.416Z,99873.38
2022-11-12T04:24:47.913Z,99868.53
2022-11-12T04:27:18.468Z,99858.13
2022-11-12T04:30:04.952Z,99857.69
2022-11-12T04:32:33.312Z,99856.84
2022-11-12T04:35:00.480Z,99850.50
2022-11-12T04:37:29.955Z,99847.84
2022-11-12T04:40:16.799Z,99849.22
2022-11-12T04:43:06.515Z,99836.31
2022-11-12T04:45:33.831Z,99850.75
2022-11-12T04:48:00.479Z,99848.75
2022-11-12T04:50:27.023Z,99851.69
2022-11-12T04:52:53.556Z,99858.31
2022-11-12T04:55:20.112Z,99860.22
2022-11-12T04:57:46.650Z,99855.16
2022-11-12T05:00:13.682Z,99866.00
2022-11-12T05:02:40.250Z,99869.31
2022-11-12T05:05:07.276Z,99859.22
2022-11-12T05:07:33.947Z,99871.88
2022-11-12T05:10:00.602Z,99869.16
2022-11-12T05:12:27.244Z,99869.63
2022-11-12T05:14:53.875Z,99872.34
2022-11-12T05:17:20.470Z,99861.72
2022-11-12T05:19:47.090Z,99873.16
2022-11-12T05:22:33.224Z,99858.69
2022-11-12T05:25:00.302Z,99862.22
2022-11-12T05:27:26.928Z,99858.72
2022-11-12T05:29:53.580Z,99857.13
2022-11-12T05:32:20.293Z,99864.84
2022-11-12T05:34:46.880Z,99851.69
2022-11-12T05:37:14.572Z,99858.00
2022-11-12T05:39:41.317Z,99857.53
2022-11-12T05:42:13.428Z,99855.19
2022-11-12T05:44:41.081Z,99850.56
2022-11-12T05:47:07.757Z,99863.66
2022-11-12T05:49:34.372Z,99865.25
2022-11-12T05:52:00.999Z,99858.41
2022-11-12T05:54:27.721Z,99872.50
2022-11-12T05:56:54.368Z,99870.56
2022-11-12T05:59:21.040Z,99872.88
2022-11-12T06:01:47.842Z,99873.38
2022-11-12T06:04:15.669Z,99881.97
2022-11-12T06:06:43.123Z,99883.63
2022-11-12T06:09:10.532Z,99880.13
2022-11-12T06:11:38.169Z,99884.91
2022-11-12T06:14:05.817Z,99885.31
2022-11-12T06:16:32.852Z,99892.59
2022-11-12T06:18:59.996Z,99889.81
2022-11-12T06:21:28.153Z,99894.66
2022-11-12T06:23:58.317Z,99890.63
2022-11-12T06:26:28.073Z,99894.56
2022-11-12T06:28:55.128Z,99889.81
2022-11-12T06:31:22.826Z,99889.22
2022-11-12T06:33:50.329Z,99902.81
2022-11-12T06:36:18.960Z,99896.56
2022-11-12T06:41:17.019Z,99899.56
2022-11-12T06:43:43.866Z,99894.19
2022-11-12T06:46:15.632Z,99887.63
2022-11-12T06:48:42.617Z,99887.41
2022-11-12T06:51:20.463Z,99891.78
2022-11-12T06:53:48.142Z,99883.78
2022-11-12T06:56:15.360Z,99885.91
2022-11-12T06:58:42.309Z,99885.72
2022-11-12T07:01:16.838Z,99889.56
2022-11-12T07:03:44.607Z,99886.84
2022-11-12T07:06:14.647Z,99888.06
2022-11-12T07:08:42.386Z,99887.06
2022-11-12T07:11:09.144Z,99888.69
2022-11-12T07:13:36.835Z,99883.03
2022-11-12T07:16:06.100Z,99884.56
2022-11-12T07:18:34.310Z,99880.81
2022-11-12T07:21:05.940Z,99886.16
2022-11-12T07:23:34.178Z,99884.16
2022-11-12T07:26:12.538Z,99894.50
2022-11-12T07:28:39.317Z,99891.28
2022-11-12T07:31:08.071Z,99890.50
2022-11-12T07:33:34.696Z,99887.16
2022-11-12T07:36:04.234Z,99892.00
2022-11-12T07:38:32.876Z,99883.44
2022-11-12T07:41:12.040Z,99891.28
2022-11-12T07:43:39.876Z,99886.97
2022-11-12T07:46:13.329Z,99884.03
2022-11-12T07:48:40.604Z,99878.81
2022-11-12T07:51:13.089Z,99877.09
2022-11-12T07:53:40.736Z,99880.09
2022-11-12T07:56:07.600Z,99885.81
2022-11-12T07:58:34.744Z,99880.34
2022-11-12T08:01:18.338Z,99886.47
2022-11-12T08:03:44.990Z,99867.53
2022-11-12T08:08:52.329Z,99881.72
2022-11-12T08:11:19.297Z,99886.09
2022-11-12T08:13:45.871Z,99867.63
2022-11-12T08:16:12.722Z,99873.97
2022-11-12T08:18:39.346Z,99878.88
2022-11-12T08:21:10.568Z,99881.91
2022-11-12T08:23:37.247Z,99876.91
2022-11-12T08:26:06.475Z,99879.59
2022-11-12T08:28:35.614Z,99882.97
2022-11-12T08:31:11.263Z,99881.06
2022-11-12T08:33:38.227Z,99872.16
2022-11-12T08:36:07.292Z,99876.16
2022-11-12T08:38:34.346Z,99872.50
2022-11-12T08:41:02.612Z,99874.09
2022-11-12T08:43:29.333Z,99873.63
2022-11-12T08:45:59.529Z,99882.59
2022-11-12T08:48:27.883Z,99866.09
2022-11-12T08:50:55.300Z,99873.59
2022-11-12T08:53:23.784Z,99873.94
2022-11-12T08:55:55.299Z,99876.50
2022-11-12T08:58:22.769Z,99871.97
2022-11-12T09:00:51.078Z,99873.94
2022-11-12T09:03:19.736Z,99874.22
2022-11-12T09:05:46.478Z,99882.53
2022-11-12T09:08:18.798Z,99877.53
2022-11-12T09:10:46.086Z,99879.66
2022-11-12T09:13:14.220Z,99869.84
2022-11-12T09:15:41.042Z,99872.97
2022-11-12T09:18:11.193Z,99866.91
2022-11-12T09:20:37.831Z,99867.06
2022-11-12T09:23:13.993Z,99864.50
2022-11-12T09:25:41.789Z,99860.22
2022-11-12T09:28:13.844Z,99863.25
2022-11-12T09:30:48.983Z,99865.78
2022-11-12T09:33:17.807Z,99857.16
2022-11-12T09:35:45.827Z,99855.53
2022-11-12T09:38:14.918Z,99857.09
2022-11-12T09:40:57.824Z,99860.47
2022-11-12T09:43:43.096Z,99863.50
2022-11-12T09:46:27.654Z,99860.78
2022-11-12T09:49:36.557Z,99854.34
2022-11-12T09:52:06.551Z,99853.09
2022-11-12T09:54:35.491Z,99851.16
2022-11-12T09:57:02.486Z,99849.88
2022-11-12T09:59:32.124Z,99852.41
2022-11-12T10:02:23.483Z,99846.31
2022-11-12T10:05:02.325Z,99848.16
2022-11-12T10:07:37.724Z,99850.06
2022-11-12T10:10:15.117Z,99848.16
2022-11-12T10:13:00.734Z,99851.28
2022-11-12T10:15:54.629Z,99849.25
2022-11-12T10:18:36.198Z,99850.00
2022-11-12T10:21:16.855Z,99852.06
2022-11-12T10:23:47.937Z,99848.69
2022-11-12T10:29:14.654Z,99843.13
2022-11-12T10:31:41.258Z,99844.41
2022-11-12T10:34:13.673Z,99839.00
2022-11-12T10:36:45.495Z,99838.22
2022-11-12T10:39:38.197Z,99843.69
2022-11-12T10:42:08.624Z,99834.63
2022-11-12T10:44:35.328Z,99836.28
2022-11-12T10:47:24.943Z,99826.84
2022-11-12T10:50:10.394Z,99823.56
2022-11-12T10:52:37.411Z,99826.31
2022-11-12T10:55:16.092Z,99825.59
2022-11-12T10:57:42.780Z,99821.78
2022-11-12T11:00:19.462Z,99820.66
2022-11-12T11:02:52.384Z,99818.72
2022-11-12T11:05:48.656Z,99807.91
2022-11-12T11:08:15.360Z,99808.66
2022-11-12T11:10:42.136Z,99813.69
2022-11-12T11:13:23.718Z,99800.88
2022-11-12T11:16:04.910Z,99802.88
2022-11-12T11:18:34.712Z,99799.03
2022-11-12T11:21:21.233Z,99794.00
2022-11-12T11:24:14.185Z,99794.47
2022-11-12T11:26:57.096Z,99801.25
2022-11-12T11:32:37.937Z,99793.25
2022-11-12T11:38:20.223Z,99784.75
2022-11-12T11:41:24.253Z,99793.66
2022-11-12T11:44:14.095Z,99789.09
2022-11-12T11:47:02.298Z,99780.44
2022-11-12T11:49:56.432Z,99779.16
2022-11-12T11:52:31.663Z,99768.69
2022-11-12T11:55:19.696Z,99766.69
2022-11-12T11:58:13.425Z,99757.13
2022-11-12T12:00:55.110Z,99760.97
2022-11-12T12:03:31.740Z,99765.06
2022-11-12T12:06:15.315Z,99759.34
2022-11-12T12:08:53.845Z,99762.06
2022-11-12T12:11:29.412Z,99758.16
2022-11-12T12:14:17.108Z,99755.53
2022-11-12T12:16:56.757Z,99753.22
2022-11-12T12:19:32.470Z,99746.25
2022-11-12T12:22:01.471Z,99754.06
2022-11-12T12:24:42.084Z,99753.28
2022-11-12T12:27:14.675Z,99742.41
2022-11-12T12:29:49.542Z,99748.00
2022-11-12T12:32:39.375Z,99745.66
2022-11-12T12:35:29.158Z,99746.84
2022-11-12T12:38:06.092Z,99740.22
2022-11-12T12:40:43.507Z,99733.59
2022-11-12T12:43:40.756Z,99727.75
2022-11-12T12:46:12.947Z,99729.06
2022-11-12T12:48:42.959Z,99723.88
2022-11-12T12:51:09.953Z,99729.22
2022-11-12T12:53:37.182Z,99715.09
2022-11-12T12:56:07.390Z,99720.59
2022-11-12T12:58:47.223Z,99716.47
2022-11-12T13:01:29.555Z,99712.94
2022-11-12T13:03:58.737Z,99702.72
2022-11-12T13:06:29.451Z,99709.50
2022-11-12T13:09:12.941Z,99699.59
2022-11-12T13:12:01.093Z,99708.69
2022-11-12T13:14:39.362Z,99707.75
2022-11-12T13:17:08.662Z,99707.19
2022-11-12T13:20:08.227Z,99704.19
2022-11-12T13:22:40.736Z,99699.97
2022-11-12T13:25:13.391Z,99692.03
2022-11-12T13:27:40.223Z,99692.75
2022-11-12T13:30:31.013Z,99692.41
2022-11-12T13:32:59.190Z,99692.31
2022-11-12T13:35:30.195Z,99700.72
2022-11-12T13:38:02.769Z,99704.09
2022-11-12T13:40:50.642Z,99691.41
2022-11-12T13:43:34.477Z,99688.59
2022-11-12T13:46:06.678Z,99700.34
2022-11-12T13:48:42.781Z,99690.66
2022-11-12T13:51:20.484Z,99686.09
2022-11-12T13:53:47.155Z,99693.53
2022-11-12T13:56:28.734Z,99693.13
2022-11-12T13:58:56.054Z,99680.09
2022-11-12T14:01:24.392Z,99680.41
2022-11-12T14:03:53.139Z,99681.53
2022-11-12T14:06:37.796Z,99681.94
2022-11-12T14:09:26.355Z,99683.44
2022-11-12T14:12:15.813Z,99681.56
2022-11-12T14:15:20.233Z,99680.31
2022-11-12T14:18:21.846Z,99685.00
2022-11-12T14:20:48.902Z,99679.78
2022-11-12T14:23:24.119Z,99674.63
2022-11-12T14:28:31.338Z,99669.75
2022-11-12T14:30:59.915Z,99662.56
2022-11-12T14:33:28.534Z,99664.75
2022-11-12T14:36:08.191Z,99658.97
2022-11-12T14:44:13.034Z,99650.53
2022-11-12T14:46:49.864Z,99643.47
2022-11-12T14:49:49.136Z,99643.94
2022-11-12T14:57:31.286Z,99654.03
2022-11-12T14:59:58.593Z,99648.56
2022-11-12T15:02:40.160Z,99648.69
2022-11-12T15:05:19.375Z,99647.19
2022-11-12T15:07:56.193Z,99646.50
2022-11-12T15:10:35.096Z,99643.44
2022-11-12T15:13:15.223Z,99639.53
2022-11-12T15:16:04.995Z,99635.34
2022-11-12T15:18:33.873Z,99625.97
2022-11-12T15:21:06.601Z,99626.19
2022-11-12T15:23:33.677Z,99636.03
2022-11-12T15:26:02.099Z,99624.38
2022-11-12T15:28:28.878Z,99622.13
2022-11-12T15:31:17.669Z,99630.78
2022-11-12T15:33:44.760Z,99633.03
2022-11-12T15:36:18.019Z,99624.16
2022-11-12T15:38:50.001Z,99614.38
2022-11-12T15:41:27.326Z,99607.84
2022-11-12T15:43:54.099Z,99609.78
2022-11-12T15:46:20.931Z,99608.94
2022-11-12T15:48:52.857Z,99613.47
2022-11-12T15:51:22.552Z,99613.00
2022-11-12T15:53:49.476Z,99605.00
2022-11-12T15:56:22.123Z,99609.03
2022-11-12T15:58:48.965Z,99604.91
2022-11-12T16:01:15.838Z,99609.31
2022-11-12T16:03:42.416Z,99606.91
2022-11-12T16:06:12.472Z,99603.75
2022-11-12T16:08:39.121Z,99606.69
2022-11-12T16:11:26.021Z,99618.91
2022-11-12T16:13:52.720Z,99611.66
2022-11-12T16:16:19.453Z,99609.84
2022-11-12T16:18:46.198Z,99608.19
2022-11-12T16:21:18.006Z,99617.16
2022-11-12T16:23:47.351Z,99617.03
2022-11-12T16:26:16.275Z,99611.09
2022-11-12T16:28:44.006Z,99619.28
2022-11-12T16:31:10.897Z,99602.81
2022-11-12T16:33:37.844Z,99608.69
2022-11-12T16:36:13.744Z,99600.38
2022-11-12T16:38:40.541Z,99604.47
2022-11-12T16:46:34.849Z,99601.41
2022-11-12T16:49:01.712Z,99605.00
2022-11-12T16:51:28.305Z,99599.78
2022-11-12T16:53:55.026Z,99602.50
2022-11-12T16:56:23.255Z,99595.38
2022-11-12T16:58:50.537Z,99601.19
2022-11-12T17:01:25.427Z,99596.69
2022-11-12T17:03:56.644Z,99596.81
2022-11-12T17:06:31.943Z,99595.59
2022-11-12T17:08:58.631Z,99591.25
2022-11-12T17:11:25.325Z,99593.41
2022-11-12T17:13:52.034Z,99586.53
2022-11-12T17:16:18.650Z,99585.91
2022-11-12T17:18:45.324Z,99588.03
2022-11-12T17:21:18.113Z,99588.81
2022-11-12T17:23:44.793Z,99588.91
2022-11-12T17:26:14.154Z,99589.47
2022-11-12T17:28:41.142Z,99591.38
2022-11-12T17:31:21.869Z,99592.19
2022-11-12T17:33:53.298Z,99595.56
2022-11-12T17:36:22.232Z,99593.78
2022-11-12T17:38:49.018Z,99588.16
2022-11-12T17:41:15.626Z,99588.31
2022-11-12T17:43:42.340Z,99593.34
2022-11-12T17:46:09.930Z,99586.47
2022-11-12T17:48:37.970Z,99589.84
2022-11-12T17:51:15.985Z,99587.31
2022-11-12T17:53:43.500Z,99583.63
2022-11-12T17:56:11.968Z,99573.84
2022-11-12T17:58:38.671Z,99580.09
2022-11-12T18:01:07.372Z,99573.84
2022-11-12T18:03:40.033Z,99567.13
2022-11-12T18:06:12.417Z,99563.97
2022-11-12T18:08:40.134Z,99575.78
2022-11-12T18:11:11.099Z,99577.53
2022-11-12T18:13:37.912Z,99572.75
2022-11-12T18:16:24.848Z,99572.09
2022-11-12T18:18:55.434Z,99565.53
2022-11-12T18:21:23.288Z,99574.00
2022-11-12T18:23:50.186Z,99567.28
2022-11-12T18:26:18.601Z,99573.69
2022-11-12T18:28:53.995Z,99559.13
2022-11-12T18:31:21.522Z,99568.91
2022-11-12T18:33:49.204Z,99565.69
2022-11-12T18:36:18.327Z,99562.34
2022-11-12T18:38:46.962Z,99566.94
2022-11-12T18:41:15.949Z,99561.00
2022-11-12T18:43:42.772Z,99564.72
2022-11-12T18:46:11.132Z,99558.34
2022-11-12T18:48:38.363Z,99545.22
2022-11-12T18:51:09.101Z,99552.09
2022-11-12T18:53:37.372Z,99555.28
2022-11-12T18:56:10.448Z,99555.91
2022-11-12T18:58:37.110Z,99552.69
2022-11-12T19:01:05.695Z,99549.69
2022-11-12T19:06:12.943Z,99541.69
2022-11-12T19:08:40.458Z,99535.91
2022-11-12T19:11:12.029Z,99537.03
2022-11-12T19:13:39.419Z,99526.81
2022-11-12T19:16:10.891Z,99534.16
2022-11-12T19:18:38.766Z,99529.31
2022-11-12T19:21:11.120Z,99529.34
2022-11-12T19:23:38.732Z,99535.09
2022-11-12T19:26:08.020Z,99533.03
2022-11-12T19:28:36.082Z,99531.41
2022-11-12T19:31:16.503Z,99535.25
2022-11-12T19:33:43.830Z,99535.25
2022-11-12T19:36:13.752Z,99535.41
2022-11-12T19:38:40.344Z,99542.63
2022-11-12T19:41:10.585Z,99533.66
2022-11-12T19:43:41.797Z,99535.66
2022-11-12T19:46:09.854Z,99529.59
2022-11-12T19:48:36.469Z,99531.50
2022-11-12T19:51:04.903Z,99538.66
2022-11-12T19:53:36.272Z,99531.38
2022-11-12T19:56:05.105Z,99531.69
2022-11-12T19:58:32.343Z,99535.50
2022-11-12T20:01:09.918Z,99538.81
2022-11-12T20:03:37.687Z,99534.69
2022-11-12T20:06:08.924Z,99526.56
2022-11-12T20:08:35.682Z,99527.91
2022-11-12T20:11:02.819Z,99539.25
2022-11-12T20:13:29.810Z,99529.63
2022-11-12T20:15:56.483Z,99527.63
2022-11-12T20:18:24.163Z,99533.19
2022-11-12T20:20:56.551Z,99512.88
2022-11-12T20:23:24.225Z,99520.78
2022-11-12T20:25:52.548Z,99526.09
2022-11-12T20:28:19.271Z,99523.38
2022-11-12T20:30:46.440Z,99516.84
2022-11-12T20:33:14.246Z,99521.16
2022-11-12T20:35:40.952Z,99511.22
2022-11-12T20:38:08.110Z,99508.03
2022-11-12T20:40:34.806Z,99508.47
2022-11-12T20:43:01.412Z,99511.94
2022-11-12T20:45:28.123Z,99507.22
2022-11-12T20:47:56.386Z,99507.47
2022-11-12T20:50:23.674Z,99504.09
2022-11-12T20:52:50.288Z,99510.13
2022-11-12T20:55:17.058Z,99498.13
2022-11-12T20:57:44.049Z,99504.34
2022-11-12T21:00:14.091Z,99500.25
2022-11-12T21:02:41.648Z,99500.97
2022-11-12T21:05:08.488Z,99504.34
2022-11-12T21:07:35.199Z,99495.50
2022-11-12T21:10:01.991Z,99497.50
2022-11-12T21:12:28.653Z,99494.13
2022-11-12T21:14:55.317Z,99500.53
2022-11-12T21:17:22.037Z,99494.59
2022-11-12T21:19:48.682Z,99483.78
2022-11-12T21:22:15.685Z,99485.34
2022-11-12T21:24:42.390Z,99476.72
2022-11-12T21:27:11.508Z,99475.97
2022-11-12T21:29:38.223Z,99475.22
2022-11-12T21:32:05.288Z,99474.75
2022-11-12T21:34:32.088Z,99471.28
2022-11-12T21:36:58.702Z,99472.06
2022-11-12T21:39:25.321Z,99469.56
2022-11-12T21:41:54.071Z,99466.41
2022-11-12T21:44:21.210Z,99465.56
2022-11-12T21:46:47.899Z,99471.22
2022-11-12T21:49:14.534Z,99472.06
2022-11-12T21:51:41.169Z,99465.34
2022-11-12T21:54:08.132Z,99461.19
2022-11-12T21:56:35.201Z,99462.53
2022-11-12T21:59:04.231Z,99461.63
2022-11-12T22:01:33.587Z,99451.69
2022-11-12T22:04:00.604Z,99453.69
2022-11-12T22:06:29.168Z,99452.44
2022-11-12T22:08:57.577Z,99458.16
2022-11-12T22:11:25.663Z,99457.88
2022-11-12T22:13:52.491Z,99454.69
2022-11-12T22:16:24.412Z,99444.66
2022-11-12T22:18:53.438Z,99445.56
2022-11-12T22:21:28.669Z,99444.53
2022-11-12T22:23:56.326Z,99449.97
2022-11-12T22:26:26.143Z,99442.97
2022-11-12T22:28:54.078Z,99436.50
2022-11-12T22:31:27.339Z,99432.56
2022-11-12T22:33:54.703Z,99427.16
2022-11-12T22:36:23.297Z,99423.78
2022-11-12T22:38:52.083Z,99425.78
2022-11-12T22:41:27.229Z,99418.22
2022-11-12T22:43:56.492Z,99431.50
2022-11-12T22:46:29.117Z,99417.91
2022-11-12T22:48:56.163Z,99414.09
2022-11-12T22:51:25.669Z,99410.03
2022-11-12T22:53:59.698Z,99411.38
2022-11-12T22:56:27.711Z,99409.72
2022-11-12T22:58:55.727Z,99408.81
2022-11-12T23:01:23.975Z,99409.72
2022-11-12T23:03:52.223Z,99414.72
2022-11-12T23:06:19.267Z,99409.84
2022-11-12T23:08:46.271Z,99409.03
2022-11-12T23:11:16.090Z,99407.63
2022-11-12T23:13:42.811Z,99408.38
2022-11-12T23:16:12.369Z,99398.47
2022-11-12T23:18:39.116Z,99398.00
2022-11-12T23:21:11.300Z,99399.75
2022-11-12T23:23:38.613Z,99397.22
2022-11-12T23:26:11.147Z,99391.91
2022-11-12T23:28:38.082Z,99391.03
2022-11-12T23:31:06.658Z,99398.50
2022-11-12T23:33:33.292Z,99393.03
2022-11-12T23:36:07.476Z,99394.69
2022-11-12T23:38:34.385Z,99383.13
2022-11-12T23:41:01.971Z,99379.00
2022-11-12T23:43:28.611Z,99388.00
2022-11-12T23:45:55.655Z,99377.94
2022-11-12T23:48:22.771Z,99381.25
2022-11-12T23:50:50.882Z,99376.97
2022-11-12T23:53:18.209Z,99383.50
2022-11-12T23:55:45.060Z,99374.69
2022-11-12T23:58:11.647Z,99375.16
